sensor_id;sensor_type;location;lat;lon;timestamp;temperature;humidity
6540;DHT22;50344;51.142;16.892;2023-09-12T00:00:46;26.80;41.40
6540;DHT22;50344;51.142;16.892;2023-09-12T00:03:12;26.80;41.40
6540;DHT22;50344;51.142;16.892;2023-09-12T00:05:38;26.80;41.30
6540;DHT22;50344;51.142;16.892;2023-09-12T00:08:03;26.80;41.30
6540;DHT22;50344;51.142;16.892;2023-09-12T00:10:29;26.80;41.30
6540;DHT22;50344;51.142;16.892;2023-09-12T00:12:55;26.70;41.20
6540;DHT22;50344;51.142;16.892;2023-09-12T00:15:21;26.70;41.20
6540;DHT22;50344;51.142;16.892;2023-09-12T00:17:46;26.70;41.20
6540;DHT22;50344;51.142;16.892;2023-09-12T00:20:13;26.70;41.20
6540;DHT22;50344;51.142;16.892;2023-09-12T00:22:39;26.60;41.10
6540;DHT22;50344;51.142;16.892;2023-09-12T00:25:05;26.70;41.10
6540;DHT22;50344;51.142;16.892;2023-09-12T00:27:30;26.60;41.00
6540;DHT22;50344;51.142;16.892;2023-09-12T00:29:56;26.70;41.10
6540;DHT22;50344;51.142;16.892;2023-09-12T00:32:21;26.60;41.00
6540;DHT22;50344;51.142;16.892;2023-09-12T00:34:47;26.60;41.00
6540;DHT22;50344;51.142;16.892;2023-09-12T00:37:13;26.60;41.00
6540;DHT22;50344;51.142;16.892;2023-09-12T00:39:38;26.60;41.00
6540;DHT22;50344;51.142;16.892;2023-09-12T00:42:04;26.60;40.90
6540;DHT22;50344;51.142;16.892;2023-09-12T00:44:33;26.60;41.00
6540;DHT22;50344;51.142;16.892;2023-09-12T00:46:58;26.60;40.90
6540;DHT22;50344;51.142;16.892;2023-09-12T00:49:24;26.60;41.00
6540;DHT22;50344;51.142;16.892;2023-09-12T00:51:50;26.60;41.00
6540;DHT22;50344;51.142;16.892;2023-09-12T00:54:16;26.50;40.90
6540;DHT22;50344;51.142;16.892;2023-09-12T00:56:42;26.50;40.90
6540;DHT22;50344;51.142;16.892;2023-09-12T00:59:08;26.50;40.90
6540;DHT22;50344;51.142;16.892;2023-09-12T01:01:34;26.50;40.90
6540;DHT22;50344;51.142;16.892;2023-09-12T01:03:59;26.50;40.80
6540;DHT22;50344;51.142;16.892;2023-09-12T01:06:27;26.50;40.80
6540;DHT22;50344;51.142;16.892;2023-09-12T01:08:54;26.50;40.80
6540;DHT22;50344;51.142;16.892;2023-09-12T01:11:20;26.40;40.70
6540;DHT22;50344;51.142;16.892;2023-09-12T01:13:46;26.50;40.80
6540;DHT22;50344;51.142;16.892;2023-09-12T01:16:11;26.40;40.80
6540;DHT22;50344;51.142;16.892;2023-09-12T01:18:37;26.40;40.70
6540;DHT22;50344;51.142;16.892;2023-09-12T01:21:11;26.40;40.80
6540;DHT22;50344;51.142;16.892;2023-09-12T01:29:09;26.40;40.60
6540;DHT22;50344;51.142;16.892;2023-09-12T01:31:38;26.30;40.80
6540;DHT22;50344;51.142;16.892;2023-09-12T01:34:11;26.30;40.90
6540;DHT22;50344;51.142;16.892;2023-09-12T01:36:37;26.30;40.60
6540;DHT22;50344;51.142;16.892;2023-09-12T01:39:03;26.30;41.00
6540;DHT22;50344;51.142;16.892;2023-09-12T01:41:29;26.20;40.90
6540;DHT22;50344;51.142;16.892;2023-09-12T01:43:55;26.20;40.90
6540;DHT22;50344;51.142;16.892;2023-09-12T01:46:21;26.30;40.70
6540;DHT22;50344;51.142;16.892;2023-09-12T01:48:47;25.80;40.60
6540;DHT22;50344;51.142;16.892;2023-09-12T01:51:16;26.20;40.80
6540;DHT22;50344;51.142;16.892;2023-09-12T01:53:42;26.20;40.70
6540;DHT22;50344;51.142;16.892;2023-09-12T01:56:10;26.20;40.60
6540;DHT22;50344;51.142;16.892;2023-09-12T01:58:36;26.20;40.60
6540;DHT22;50344;51.142;16.892;2023-09-12T02:01:02;26.20;40.50
6540;DHT22;50344;51.142;16.892;2023-09-12T02:03:28;26.20;40.50
6540;DHT22;50344;51.142;16.892;2023-09-12T02:05:53;26.20;40.50
6540;DHT22;50344;51.142;16.892;2023-09-12T02:08:19;26.20;40.40
6540;DHT22;50344;51.142;16.892;2023-09-12T02:10:44;26.20;40.30
6540;DHT22;50344;51.142;16.892;2023-09-12T02:13:10;26.20;40.30
6540;DHT22;50344;51.142;16.892;2023-09-12T02:15:36;26.20;40.30
6540;DHT22;50344;51.142;16.892;2023-09-12T02:18:01;26.20;40.20
6540;DHT22;50344;51.142;16.892;2023-09-12T02:20:27;26.20;40.20
6540;DHT22;50344;51.142;16.892;2023-09-12T02:22:53;26.10;40.10
6540;DHT22;50344;51.142;16.892;2023-09-12T02:25:18;26.10;40.10
6540;DHT22;50344;51.142;16.892;2023-09-12T02:27:44;26.10;40.20
6540;DHT22;50344;51.142;16.892;2023-09-12T02:30:09;26.10;40.20
6540;DHT22;50344;51.142;16.892;2023-09-12T02:32:35;26.10;40.20
6540;DHT22;50344;51.142;16.892;2023-09-12T02:35:01;26.10;40.20
6540;DHT22;50344;51.142;16.892;2023-09-12T02:37:26;26.10;40.20
6540;DHT22;50344;51.142;16.892;2023-09-12T02:39:52;26.00;40.20
6540;DHT22;50344;51.142;16.892;2023-09-12T02:42:17;26.00;40.10
6540;DHT22;50344;51.142;16.892;2023-09-12T02:44:43;26.00;40.10
6540;DHT22;50344;51.142;16.892;2023-09-12T02:47:08;26.00;40.10
6540;DHT22;50344;51.142;16.892;2023-09-12T02:49:34;26.00;39.90
6540;DHT22;50344;51.142;16.892;2023-09-12T02:51:59;26.00;40.00
6540;DHT22;50344;51.142;16.892;2023-09-12T02:54:25;26.00;40.00
6540;DHT22;50344;51.142;16.892;2023-09-12T02:56:50;26.00;39.90
6540;DHT22;50344;51.142;16.892;2023-09-12T02:59:16;25.90;39.80
6540;DHT22;50344;51.142;16.892;2023-09-12T03:01:41;26.00;39.80
6540;DHT22;50344;51.142;16.892;2023-09-12T03:04:07;26.00;39.80
6540;DHT22;50344;51.142;16.892;2023-09-12T03:06:33;25.90;39.70
6540;DHT22;50344;51.142;16.892;2023-09-12T03:08:58;25.90;39.70
6540;DHT22;50344;51.142;16.892;2023-09-12T03:11:27;25.90;39.70
6540;DHT22;50344;51.142;16.892;2023-09-12T03:13:55;25.90;39.70
6540;DHT22;50344;51.142;16.892;2023-09-12T03:16:21;25.90;39.70
6540;DHT22;50344;51.142;16.892;2023-09-12T03:18:48;25.90;39.70
6540;DHT22;50344;51.142;16.892;2023-09-12T03:21:14;25.90;39.70
6540;DHT22;50344;51.142;16.892;2023-09-12T03:23:39;25.90;39.80
6540;DHT22;50344;51.142;16.892;2023-09-12T03:26:05;25.90;39.80
6540;DHT22;50344;51.142;16.892;2023-09-12T03:28:31;25.80;39.80
6540;DHT22;50344;51.142;16.892;2023-09-12T03:31:06;25.90;39.80
6540;DHT22;50344;51.142;16.892;2023-09-12T03:33:32;25.90;39.80
6540;DHT22;50344;51.142;16.892;2023-09-12T03:35:58;25.80;39.70
6540;DHT22;50344;51.142;16.892;2023-09-12T03:38:24;25.80;39.80
6540;DHT22;50344;51.142;16.892;2023-09-12T03:40:49;25.80;39.80
6540;DHT22;50344;51.142;16.892;2023-09-12T03:43:15;25.80;39.80
6540;DHT22;50344;51.142;16.892;2023-09-12T03:45:40;25.80;39.80
6540;DHT22;50344;51.142;16.892;2023-09-12T03:48:06;25.80;39.70
6540;DHT22;50344;51.142;16.892;2023-09-12T03:50:32;25.70;39.60
6540;DHT22;50344;51.142;16.892;2023-09-12T03:52:57;25.70;39.60
6540;DHT22;50344;51.142;16.892;2023-09-12T03:55:23;25.70;39.60
6540;DHT22;50344;51.142;16.892;2023-09-12T03:57:48;25.70;39.60
6540;DHT22;50344;51.142;16.892;2023-09-12T04:00:14;25.70;39.60
6540;DHT22;50344;51.142;16.892;2023-09-12T04:02:40;25.70;39.50
6540;DHT22;50344;51.142;16.892;2023-09-12T04:05:05;25.60;39.60
6540;DHT22;50344;51.142;16.892;2023-09-12T04:07:31;25.50;40.00
6540;DHT22;50344;51.142;16.892;2023-09-12T04:09:56;25.40;40.40
6540;DHT22;50344;51.142;16.892;2023-09-12T04:12:22;25.40;40.40
6540;DHT22;50344;51.142;16.892;2023-09-12T04:14:49;25.40;40.40
6540;DHT22;50344;51.142;16.892;2023-09-12T04:17:15;25.50;40.50
6540;DHT22;50344;51.142;16.892;2023-09-12T04:19:40;25.50;40.50
6540;DHT22;50344;51.142;16.892;2023-09-12T04:22:06;25.60;40.50
6540;DHT22;50344;51.142;16.892;2023-09-12T04:24:31;25.60;40.50
6540;DHT22;50344;51.142;16.892;2023-09-12T04:26:57;25.70;40.60
6540;DHT22;50344;51.142;16.892;2023-09-12T04:29:22;25.70;40.60
6540;DHT22;50344;51.142;16.892;2023-09-12T04:31:48;25.70;40.60
6540;DHT22;50344;51.142;16.892;2023-09-12T04:34:14;25.80;40.70
6540;DHT22;50344;51.142;16.892;2023-09-12T04:36:39;25.80;40.70
6540;DHT22;50344;51.142;16.892;2023-09-12T04:39:05;25.90;40.70
6540;DHT22;50344;51.142;16.892;2023-09-12T04:41:30;25.90;40.70
6540;DHT22;50344;51.142;16.892;2023-09-12T04:43:56;25.90;40.70
6540;DHT22;50344;51.142;16.892;2023-09-12T04:46:23;25.90;40.70
6540;DHT22;50344;51.142;16.892;2023-09-12T04:48:49;25.90;40.70
6540;DHT22;50344;51.142;16.892;2023-09-12T04:51:15;26.00;40.90
6540;DHT22;50344;51.142;16.892;2023-09-12T04:53:40;26.00;40.80
6540;DHT22;50344;51.142;16.892;2023-09-12T04:56:06;26.00;40.80
6540;DHT22;50344;51.142;16.892;2023-09-12T04:58:32;26.00;40.90
6540;DHT22;50344;51.142;16.892;2023-09-12T05:00:57;26.00;40.80
6540;DHT22;50344;51.142;16.892;2023-09-12T05:03:23;26.00;40.80
6540;DHT22;50344;51.142;16.892;2023-09-12T05:05:49;26.10;40.90
6540;DHT22;50344;51.142;16.892;2023-09-12T05:08:17;26.10;40.90
6540;DHT22;50344;51.142;16.892;2023-09-12T05:10:43;26.10;41.60
6540;DHT22;50344;51.142;16.892;2023-09-12T05:13:09;26.10;41.20
6540;DHT22;50344;51.142;16.892;2023-09-12T05:15:34;26.10;41.40
6540;DHT22;50344;51.142;16.892;2023-09-12T05:18:02;26.10;41.50
6540;DHT22;50344;51.142;16.892;2023-09-12T05:20:27;26.10;41.50
6540;DHT22;50344;51.142;16.892;2023-09-12T05:22:53;26.10;41.70
6540;DHT22;50344;51.142;16.892;2023-09-12T05:25:18;26.20;41.80
6540;DHT22;50344;51.142;16.892;2023-09-12T05:27:44;26.20;41.90
6540;DHT22;50344;51.142;16.892;2023-09-12T05:30:10;26.20;42.10
6540;DHT22;50344;51.142;16.892;2023-09-12T05:32:35;26.20;42.20
6540;DHT22;50344;51.142;16.892;2023-09-12T05:35:02;26.20;42.80
6540;DHT22;50344;51.142;16.892;2023-09-12T05:37:27;26.20;42.80
6540;DHT22;50344;51.142;16.892;2023-09-12T05:39:54;26.20;42.80
6540;DHT22;50344;51.142;16.892;2023-09-12T05:42:19;26.20;42.70
6540;DHT22;50344;51.142;16.892;2023-09-12T05:44:47;26.30;42.80
6540;DHT22;50344;51.142;16.892;2023-09-12T05:47:14;26.30;43.00
6540;DHT22;50344;51.142;16.892;2023-09-12T05:49:39;26.30;42.90
6540;DHT22;50344;51.142;16.892;2023-09-12T05:52:05;26.30;43.00
6540;DHT22;50344;51.142;16.892;2023-09-12T05:54:31;26.30;42.90
6540;DHT22;50344;51.142;16.892;2023-09-12T05:56:56;26.30;43.20
6540;DHT22;50344;51.142;16.892;2023-09-12T05:59:22;26.30;43.30
6540;DHT22;50344;51.142;16.892;2023-09-12T06:01:47;26.30;43.40
6540;DHT22;50344;51.142;16.892;2023-09-12T06:04:14;26.30;43.50
6540;DHT22;50344;51.142;16.892;2023-09-12T06:06:40;26.30;43.60
6540;DHT22;50344;51.142;16.892;2023-09-12T06:09:05;26.30;43.60
6540;DHT22;50344;51.142;16.892;2023-09-12T06:11:31;26.30;43.60
6540;DHT22;50344;51.142;16.892;2023-09-12T06:13:56;26.40;43.70
6540;DHT22;50344;51.142;16.892;2023-09-12T06:16:22;26.30;43.30
6540;DHT22;50344;51.142;16.892;2023-09-12T06:18:48;26.40;43.70
6540;DHT22;50344;51.142;16.892;2023-09-12T06:21:19;26.30;43.90
6540;DHT22;50344;51.142;16.892;2023-09-12T06:23:46;26.30;43.80
6540;DHT22;50344;51.142;16.892;2023-09-12T06:28:56;26.40;43.80
6540;DHT22;50344;51.142;16.892;2023-09-12T06:31:22;26.40;43.90
6540;DHT22;50344;51.142;16.892;2023-09-12T06:33:47;26.40;43.90
6540;DHT22;50344;51.142;16.892;2023-09-12T06:36:13;26.40;43.90
6540;DHT22;50344;51.142;16.892;2023-09-12T06:38:38;26.40;43.80
6540;DHT22;50344;51.142;16.892;2023-09-12T06:41:04;26.40;43.80
6540;DHT22;50344;51.142;16.892;2023-09-12T06:43:29;26.40;43.80
6540;DHT22;50344;51.142;16.892;2023-09-12T06:45:56;26.40;43.80
6540;DHT22;50344;51.142;16.892;2023-09-12T06:48:21;26.40;43.50
6540;DHT22;50344;51.142;16.892;2023-09-12T06:50:47;26.40;43.30
6540;DHT22;50344;51.142;16.892;2023-09-12T06:53:12;26.40;43.00
6540;DHT22;50344;51.142;16.892;2023-09-12T06:55:38;26.30;43.00
6540;DHT22;50344;51.142;16.892;2023-09-12T06:58:04;26.20;43.00
6540;DHT22;50344;51.142;16.892;2023-09-12T07:00:29;26.30;43.20
6540;DHT22;50344;51.142;16.892;2023-09-12T07:02:55;26.30;43.40
6540;DHT22;50344;51.142;16.892;2023-09-12T07:05:20;26.30;43.50
6540;DHT22;50344;51.142;16.892;2023-09-12T07:07:46;26.30;43.40
6540;DHT22;50344;51.142;16.892;2023-09-12T07:10:11;26.40;43.80
6540;DHT22;50344;51.142;16.892;2023-09-12T07:12:37;26.40;44.10
6540;DHT22;50344;51.142;16.892;2023-09-12T07:15:03;26.40;44.00
6540;DHT22;50344;51.142;16.892;2023-09-12T07:17:28;26.50;44.30
6540;DHT22;50344;51.142;16.892;2023-09-12T07:19:54;26.50;44.20
6540;DHT22;50344;51.142;16.892;2023-09-12T07:22:20;26.60;44.50
6540;DHT22;50344;51.142;16.892;2023-09-12T07:24:45;26.50;44.40
6540;DHT22;50344;51.142;16.892;2023-09-12T07:27:11;26.60;44.50
6540;DHT22;50344;51.142;16.892;2023-09-12T07:29:37;26.60;44.60
6540;DHT22;50344;51.142;16.892;2023-09-12T07:32:03;26.60;44.70
6540;DHT22;50344;51.142;16.892;2023-09-12T07:34:28;26.60;44.80
6540;DHT22;50344;51.142;16.892;2023-09-12T07:36:54;26.60;45.00
6540;DHT22;50344;51.142;16.892;2023-09-12T07:39:20;26.60;45.10
6540;DHT22;50344;51.142;16.892;2023-09-12T07:41:45;26.70;45.30
6540;DHT22;50344;51.142;16.892;2023-09-12T07:44:11;26.70;45.30
6540;DHT22;50344;51.142;16.892;2023-09-12T07:46:37;26.70;45.60
6540;DHT22;50344;51.142;16.892;2023-09-12T07:49:03;26.70;45.50
6540;DHT22;50344;51.142;16.892;2023-09-12T07:51:28;26.70;45.60
6540;DHT22;50344;51.142;16.892;2023-09-12T07:53:54;26.70;45.70
6540;DHT22;50344;51.142;16.892;2023-09-12T07:56:19;26.80;45.80
6540;DHT22;50344;51.142;16.892;2023-09-12T07:58:45;26.80;45.80
6540;DHT22;50344;51.142;16.892;2023-09-12T08:01:11;26.80;46.00
6540;DHT22;50344;51.142;16.892;2023-09-12T08:03:37;26.80;45.80
6540;DHT22;50344;51.142;16.892;2023-09-12T08:06:04;26.80;45.70
6540;DHT22;50344;51.142;16.892;2023-09-12T08:08:29;26.80;46.40
6540;DHT22;50344;51.142;16.892;2023-09-12T08:10:56;26.80;45.70
6540;DHT22;50344;51.142;16.892;2023-09-12T08:13:22;26.90;45.90
6540;DHT22;50344;51.142;16.892;2023-09-12T08:15:48;26.90;45.80
6540;DHT22;50344;51.142;16.892;2023-09-12T08:18:14;26.90;45.80
6540;DHT22;50344;51.142;16.892;2023-09-12T08:20:40;26.90;45.70
6540;DHT22;50344;51.142;16.892;2023-09-12T08:23:06;26.90;45.70
6540;DHT22;50344;51.142;16.892;2023-09-12T08:25:31;27.00;45.70
6540;DHT22;50344;51.142;16.892;2023-09-12T08:27:57;27.00;45.70
6540;DHT22;50344;51.142;16.892;2023-09-12T08:30:22;27.00;45.80
6540;DHT22;50344;51.142;16.892;2023-09-12T08:32:48;27.00;45.70
6540;DHT22;50344;51.142;16.892;2023-09-12T08:35:14;27.00;45.70
6540;DHT22;50344;51.142;16.892;2023-09-12T08:37:40;27.00;45.60
6540;DHT22;50344;51.142;16.892;2023-09-12T08:40:06;27.00;45.60
6540;DHT22;50344;51.142;16.892;2023-09-12T08:42:41;27.10;45.60
6540;DHT22;50344;51.142;16.892;2023-09-12T08:45:13;27.10;45.50
6540;DHT22;50344;51.142;16.892;2023-09-12T08:47:44;27.10;45.50
6540;DHT22;50344;51.142;16.892;2023-09-12T08:50:10;27.10;45.50
6540;DHT22;50344;51.142;16.892;2023-09-12T08:52:36;27.10;45.40
6540;DHT22;50344;51.142;16.892;2023-09-12T08:55:02;27.10;45.30
6540;DHT22;50344;51.142;16.892;2023-09-12T08:57:28;27.00;45.20
6540;DHT22;50344;51.142;16.892;2023-09-12T08:59:55;27.30;45.40
6540;DHT22;50344;51.142;16.892;2023-09-12T09:02:21;27.10;45.20
6540;DHT22;50344;51.142;16.892;2023-09-12T09:04:47;27.20;45.30
6540;DHT22;50344;51.142;16.892;2023-09-12T09:07:13;27.20;45.20
6540;DHT22;50344;51.142;16.892;2023-09-12T09:09:39;27.20;45.20
6540;DHT22;50344;51.142;16.892;2023-09-12T09:12:08;27.20;45.10
6540;DHT22;50344;51.142;16.892;2023-09-12T09:14:34;27.20;45.10
6540;DHT22;50344;51.142;16.892;2023-09-12T09:16:59;27.20;45.00
6540;DHT22;50344;51.142;16.892;2023-09-12T09:19:40;27.30;45.10
6540;DHT22;50344;51.142;16.892;2023-09-12T09:22:07;27.30;45.00
6540;DHT22;50344;51.142;16.892;2023-09-12T09:24:32;27.30;45.00
6540;DHT22;50344;51.142;16.892;2023-09-12T09:26:58;27.30;45.00
6540;DHT22;50344;51.142;16.892;2023-09-12T09:29:25;27.30;45.00
6540;DHT22;50344;51.142;16.892;2023-09-12T09:31:52;27.30;45.00
6540;DHT22;50344;51.142;16.892;2023-09-12T09:34:18;27.30;44.90
6540;DHT22;50344;51.142;16.892;2023-09-12T09:36:46;27.30;44.90
6540;DHT22;50344;51.142;16.892;2023-09-12T09:39:12;27.30;44.90
6540;DHT22;50344;51.142;16.892;2023-09-12T09:41:38;27.30;44.80
6540;DHT22;50344;51.142;16.892;2023-09-12T09:44:07;27.40;44.80
6540;DHT22;50344;51.142;16.892;2023-09-12T09:46:33;27.40;44.80
6540;DHT22;50344;51.142;16.892;2023-09-12T09:48:59;27.40;44.80
6540;DHT22;50344;51.142;16.892;2023-09-12T09:51:25;27.40;44.70
6540;DHT22;50344;51.142;16.892;2023-09-12T09:53:51;27.40;44.70
6540;DHT22;50344;51.142;16.892;2023-09-12T09:56:17;27.40;44.70
6540;DHT22;50344;51.142;16.892;2023-09-12T09:58:51;27.40;44.60
6540;DHT22;50344;51.142;16.892;2023-09-12T10:01:21;27.40;44.60
6540;DHT22;50344;51.142;16.892;2023-09-12T10:03:48;27.40;44.70
6540;DHT22;50344;51.142;16.892;2023-09-12T10:06:14;27.50;44.70
6540;DHT22;50344;51.142;16.892;2023-09-12T10:08:40;27.50;44.70
6540;DHT22;50344;51.142;16.892;2023-09-12T10:11:08;27.50;44.60
6540;DHT22;50344;51.142;16.892;2023-09-12T10:13:34;27.50;44.60
6540;DHT22;50344;51.142;16.892;2023-09-12T10:16:01;27.50;44.50
6540;DHT22;50344;51.142;16.892;2023-09-12T10:18:31;27.50;44.50
6540;DHT22;50344;51.142;16.892;2023-09-12T10:21:05;27.50;45.20
6540;DHT22;50344;51.142;16.892;2023-09-12T10:26:03;27.60;44.50
6540;DHT22;50344;51.142;16.892;2023-09-12T10:28:28;27.60;44.40
6540;DHT22;50344;51.142;16.892;2023-09-12T10:30:54;27.60;44.30
6540;DHT22;50344;51.142;16.892;2023-09-12T10:33:21;27.60;44.40
6540;DHT22;50344;51.142;16.892;2023-09-12T10:35:46;27.60;44.30
6540;DHT22;50344;51.142;16.892;2023-09-12T10:38:13;27.60;44.30
6540;DHT22;50344;51.142;16.892;2023-09-12T10:40:39;27.60;44.30
6540;DHT22;50344;51.142;16.892;2023-09-12T10:43:05;27.60;44.20
6540;DHT22;50344;51.142;16.892;2023-09-12T10:45:31;27.60;44.20
6540;DHT22;50344;51.142;16.892;2023-09-12T10:47:58;27.60;44.10
6540;DHT22;50344;51.142;16.892;2023-09-12T10:50:24;27.60;44.10
6540;DHT22;50344;51.142;16.892;2023-09-12T10:52:49;27.60;44.10
6540;DHT22;50344;51.142;16.892;2023-09-12T10:55:16;27.70;44.20
6540;DHT22;50344;51.142;16.892;2023-09-12T11:00:41;27.70;44.20
6540;DHT22;50344;51.142;16.892;2023-09-12T11:03:49;28.00;44.20
6540;DHT22;50344;51.142;16.892;2023-09-12T11:05:56;27.70;44.00
6540;DHT22;50344;51.142;16.892;2023-09-12T11:08:22;27.70;43.90
6540;DHT22;50344;51.142;16.892;2023-09-12T11:13:37;27.70;43.80
6540;DHT22;50344;51.142;16.892;2023-09-12T11:16:11;27.70;43.70
6540;DHT22;50344;51.142;16.892;2023-09-12T11:21:31;27.80;43.70
6540;DHT22;50344;51.142;16.892;2023-09-12T11:23:57;27.80;43.70
6540;DHT22;50344;51.142;16.892;2023-09-12T11:26:24;27.80;43.70
6540;DHT22;50344;51.142;16.892;2023-09-12T11:28:49;27.80;43.60
6540;DHT22;50344;51.142;16.892;2023-09-12T11:31:25;27.80;43.60
6540;DHT22;50344;51.142;16.892;2023-09-12T11:33:52;27.80;43.50
6540;DHT22;50344;51.142;16.892;2023-09-12T11:36:18;27.80;43.30
6540;DHT22;50344;51.142;16.892;2023-09-12T11:38:44;27.80;43.40
6540;DHT22;50344;51.142;16.892;2023-09-12T11:41:14;27.80;43.20
6540;DHT22;50344;51.142;16.892;2023-09-12T11:43:40;27.90;43.30
6540;DHT22;50344;51.142;16.892;2023-09-12T11:46:06;27.90;43.40
6540;DHT22;50344;51.142;16.892;2023-09-12T11:48:32;27.90;43.30
6540;DHT22;50344;51.142;16.892;2023-09-12T11:50:57;27.90;43.30
6540;DHT22;50344;51.142;16.892;2023-09-12T11:53:25;27.90;43.20
6540;DHT22;50344;51.142;16.892;2023-09-12T11:55:56;28.20;43.30
6540;DHT22;50344;51.142;16.892;2023-09-12T11:58:22;27.90;43.00
6540;DHT22;50344;51.142;16.892;2023-09-12T12:00:49;27.90;43.00
6540;DHT22;50344;51.142;16.892;2023-09-12T12:03:17;27.90;42.90
6540;DHT22;50344;51.142;16.892;2023-09-12T12:05:42;27.90;42.90
6540;DHT22;50344;51.142;16.892;2023-09-12T12:08:08;27.90;42.90
6540;DHT22;50344;51.142;16.892;2023-09-12T12:10:35;27.90;42.90
6540;DHT22;50344;51.142;16.892;2023-09-12T12:13:01;27.90;42.80
6540;DHT22;50344;51.142;16.892;2023-09-12T12:15:27;27.90;42.80
6540;DHT22;50344;51.142;16.892;2023-09-12T12:17:55;27.90;42.80
6540;DHT22;50344;51.142;16.892;2023-09-12T12:20:21;27.90;42.80
6540;DHT22;50344;51.142;16.892;2023-09-12T12:22:47;27.90;42.70
6540;DHT22;50344;51.142;16.892;2023-09-12T12:25:13;27.90;42.80
6540;DHT22;50344;51.142;16.892;2023-09-12T12:27:40;27.90;42.80
6540;DHT22;50344;51.142;16.892;2023-09-12T12:30:09;27.90;42.80
6540;DHT22;50344;51.142;16.892;2023-09-12T12:32:45;27.90;42.70
6540;DHT22;50344;51.142;16.892;2023-09-12T12:35:22;27.90;42.50
6540;DHT22;50344;51.142;16.892;2023-09-12T12:37:49;27.90;42.40
6540;DHT22;50344;51.142;16.892;2023-09-12T12:40:15;27.90;42.50
6540;DHT22;50344;51.142;16.892;2023-09-12T12:42:42;27.90;42.50
6540;DHT22;50344;51.142;16.892;2023-09-12T12:45:11;27.90;42.40
6540;DHT22;50344;51.142;16.892;2023-09-12T12:47:38;27.90;42.40
6540;DHT22;50344;51.142;16.892;2023-09-12T12:50:13;27.90;42.40
6540;DHT22;50344;51.142;16.892;2023-09-12T12:52:39;27.90;42.70
6540;DHT22;50344;51.142;16.892;2023-09-12T12:55:14;27.90;42.50
6540;DHT22;50344;51.142;16.892;2023-09-12T12:57:41;28.00;42.50
6540;DHT22;50344;51.142;16.892;2023-09-12T13:02:39;28.00;42.50
6540;DHT22;50344;51.142;16.892;2023-09-12T13:05:06;28.00;42.40
6540;DHT22;50344;51.142;16.892;2023-09-12T13:07:34;27.90;42.40
6540;DHT22;50344;51.142;16.892;2023-09-12T13:10:00;28.00;42.40
6540;DHT22;50344;51.142;16.892;2023-09-12T13:12:25;28.00;42.40
6540;DHT22;50344;51.142;16.892;2023-09-12T13:14:51;27.90;42.40
6540;DHT22;50344;51.142;16.892;2023-09-12T13:17:16;27.90;42.40
6540;DHT22;50344;51.142;16.892;2023-09-12T13:19:42;27.60;42.20
6540;DHT22;50344;51.142;16.892;2023-09-12T13:22:07;27.90;42.30
6540;DHT22;50344;51.142;16.892;2023-09-12T13:24:33;28.00;42.30
6540;DHT22;50344;51.142;16.892;2023-09-12T13:26:59;27.90;42.20
6540;DHT22;50344;51.142;16.892;2023-09-12T13:29:24;28.00;42.20
6540;DHT22;50344;51.142;16.892;2023-09-12T13:31:50;28.00;42.20
6540;DHT22;50344;51.142;16.892;2023-09-12T13:34:15;28.00;42.20
6540;DHT22;50344;51.142;16.892;2023-09-12T13:36:42;28.00;42.20
6540;DHT22;50344;51.142;16.892;2023-09-12T13:39:07;27.90;42.20
6540;DHT22;50344;51.142;16.892;2023-09-12T13:41:33;28.00;42.20
6540;DHT22;50344;51.142;16.892;2023-09-12T13:43:58;28.00;42.30
6540;DHT22;50344;51.142;16.892;2023-09-12T13:46:24;28.00;42.20
6540;DHT22;50344;51.142;16.892;2023-09-12T13:48:50;28.00;42.20
6540;DHT22;50344;51.142;16.892;2023-09-12T13:51:15;28.00;42.20
6540;DHT22;50344;51.142;16.892;2023-09-12T13:53:41;28.00;42.20
6540;DHT22;50344;51.142;16.892;2023-09-12T13:56:06;27.90;42.20
6540;DHT22;50344;51.142;16.892;2023-09-12T13:58:33;28.00;42.20
6540;DHT22;50344;51.142;16.892;2023-09-12T14:00:59;28.00;42.20
6540;DHT22;50344;51.142;16.892;2023-09-12T14:03:24;28.00;42.20
6540;DHT22;50344;51.142;16.892;2023-09-12T14:05:50;28.00;42.20
6540;DHT22;50344;51.142;16.892;2023-09-12T14:08:16;28.00;42.20
6540;DHT22;50344;51.142;16.892;2023-09-12T14:10:42;28.00;42.20
6540;DHT22;50344;51.142;16.892;2023-09-12T14:13:08;28.10;42.30
6540;DHT22;50344;51.142;16.892;2023-09-12T14:15:33;28.00;42.00
6540;DHT22;50344;51.142;16.892;2023-09-12T14:17:59;28.10;41.10
6540;DHT22;50344;51.142;16.892;2023-09-12T14:20:24;28.10;40.10
6540;DHT22;50344;51.142;16.892;2023-09-12T14:22:50;28.10;39.30
6540;DHT22;50344;51.142;16.892;2023-09-12T14:25:16;28.20;39.50
6540;DHT22;50344;51.142;16.892;2023-09-12T14:27:42;28.20;39.40
6540;DHT22;50344;51.142;16.892;2023-09-12T14:30:08;28.20;39.20
6540;DHT22;50344;51.142;16.892;2023-09-12T14:32:34;28.20;39.00
6540;DHT22;50344;51.142;16.892;2023-09-12T14:35:00;28.30;38.90
6540;DHT22;50344;51.142;16.892;2023-09-12T14:37:25;28.30;39.10
6540;DHT22;50344;51.142;16.892;2023-09-12T14:39:53;28.30;39.10
6540;DHT22;50344;51.142;16.892;2023-09-12T14:42:19;28.30;38.90
6540;DHT22;50344;51.142;16.892;2023-09-12T14:44:44;28.30;38.90
6540;DHT22;50344;51.142;16.892;2023-09-12T14:47:10;28.30;38.90
6540;DHT22;50344;51.142;16.892;2023-09-12T14:49:35;28.30;39.40
6540;DHT22;50344;51.142;16.892;2023-09-12T14:52:01;28.30;39.40
6540;DHT22;50344;51.142;16.892;2023-09-12T14:54:27;28.30;39.20
6540;DHT22;50344;51.142;16.892;2023-09-12T14:56:52;28.30;39.60
6540;DHT22;50344;51.142;16.892;2023-09-12T14:59:18;28.30;39.60
6540;DHT22;50344;51.142;16.892;2023-09-12T15:01:44;28.30;39.80
6540;DHT22;50344;51.142;16.892;2023-09-12T15:04:10;28.30;39.70
6540;DHT22;50344;51.142;16.892;2023-09-12T15:06:36;28.30;39.80
6540;DHT22;50344;51.142;16.892;2023-09-12T15:09:02;28.30;39.60
6540;DHT22;50344;51.142;16.892;2023-09-12T15:11:27;28.30;39.90
6540;DHT22;50344;51.142;16.892;2023-09-12T15:13:53;28.30;39.90
6540;DHT22;50344;51.142;16.892;2023-09-12T15:16:18;28.30;39.90
6540;DHT22;50344;51.142;16.892;2023-09-12T15:18:44;28.30;40.00
6540;DHT22;50344;51.142;16.892;2023-09-12T15:21:09;28.30;40.10
6540;DHT22;50344;51.142;16.892;2023-09-12T15:23:35;28.30;40.30
6540;DHT22;50344;51.142;16.892;2023-09-12T15:26:00;28.30;40.80
6540;DHT22;50344;51.142;16.892;2023-09-12T15:28:26;28.20;40.90
6540;DHT22;50344;51.142;16.892;2023-09-12T15:30:52;28.20;40.30
6540;DHT22;50344;51.142;16.892;2023-09-12T15:33:17;28.30;40.70
6540;DHT22;50344;51.142;16.892;2023-09-12T15:35:43;28.30;40.80
6540;DHT22;50344;51.142;16.892;2023-09-12T15:38:08;28.30;40.80
6540;DHT22;50344;51.142;16.892;2023-09-12T15:40:34;28.30;41.10
6540;DHT22;50344;51.142;16.892;2023-09-12T15:42:59;28.30;41.20
6540;DHT22;50344;51.142;16.892;2023-09-12T15:45:25;28.30;41.40